Mill Spring, North Carolina
Current Conditions -  °F | °C
As of 5:55 PM on Tuesday 27 Jan 2015 (Local Time) from KFQD Reporting Station
Clear Clear  
Wind Chill: 32°   Ceiling: Unl
Heat Index: 37°   Visibility: 10mi
Dew Point: 22°   Wind: 7mph
Humidity: 55%   Direction: 320°NW
Pressure: 29.94"   Gusts: NA
Location:  35.3°N, 82.16°W
Report Text: KFQD 272255Z AUTO 32006KT 10SM CLR 03/M05 A2994 RMK AO2 T00301053
Loading
Personal Weather Stations






























Interactive Weather Map New forecast layout! Learn more

10-Day Weather Forecast

Advertisements
Track Severe Weather on mobile